createdAt,value
2022-08-26T00:01:36.540Z,23.57
2022-08-26T00:07:38.875Z,23.57
2022-08-26T00:13:41.345Z,23.47
2022-08-26T00:19:50.003Z,23.50
2022-08-26T00:25:54.700Z,23.35
2022-08-26T00:31:58.794Z,23.43
2022-08-26T00:38:02.433Z,23.29
2022-08-26T00:44:05.649Z,23.27
2022-08-26T00:50:14.116Z,23.24
2022-08-26T00:56:29.349Z,23.20
2022-08-26T01:02:31.475Z,23.26
2022-08-26T01:08:34.106Z,23.16
2022-08-26T01:14:36.987Z,23.09
2022-08-26T01:21:06.313Z,23.01
2022-08-26T01:27:15.600Z,22.97
2022-08-26T01:33:23.608Z,22.84
2022-08-26T01:39:25.690Z,22.83
2022-08-26T01:45:32.189Z,22.67
2022-08-26T01:51:38.201Z,22.57
2022-08-26T01:57:41.042Z,22.57
2022-08-26T02:04:10.792Z,22.13
2022-08-26T02:10:13.093Z,22.03
2022-08-26T02:16:20.949Z,21.86
2022-08-26T02:22:24.932Z,21.76
2022-08-26T02:28:33.294Z,21.71
2022-08-26T02:34:35.318Z,21.81
2022-08-26T02:40:41.072Z,21.63
2022-08-26T02:46:47.097Z,21.66
2022-08-26T02:52:49.458Z,21.34
2022-08-26T02:58:52.297Z,21.41
2022-08-26T03:04:57.911Z,21.35
2022-08-26T03:11:04.276Z,21.38
2022-08-26T03:17:07.012Z,21.34
2022-08-26T03:23:12.479Z,21.26
2022-08-26T03:29:33.143Z,21.32
2022-08-26T03:35:35.729Z,21.35
2022-08-26T03:41:38.040Z,21.44
2022-08-26T03:47:40.747Z,21.41
2022-08-26T03:53:43.806Z,21.44
2022-08-26T03:59:45.755Z,21.38
2022-08-26T04:05:52.203Z,21.34
2022-08-26T04:11:57.609Z,21.31
2022-08-26T04:17:59.557Z,21.38
2022-08-26T04:24:03.393Z,21.34
2022-08-26T04:30:06.955Z,21.40
2022-08-26T04:36:11.803Z,21.34
2022-08-26T04:42:13.906Z,21.11
2022-08-26T04:48:16.864Z,21.23
2022-08-26T04:54:19.397Z,21.30
2022-08-26T05:00:22.161Z,21.33
2022-08-26T05:06:24.324Z,21.45
2022-08-26T05:12:27.854Z,21.61
2022-08-26T05:18:30.294Z,21.72
2022-08-26T05:24:32.389Z,22.03
2022-08-26T05:30:35.488Z,22.34
2022-08-26T05:36:37.929Z,22.40
2022-08-26T05:42:40.284Z,22.61
2022-08-26T05:48:44.448Z,22.76
2022-08-26T05:54:46.566Z,22.83
2022-08-26T06:01:01.389Z,22.86
2022-08-26T06:07:05.432Z,22.92
2022-08-26T06:13:11.872Z,23.08
2022-08-26T06:19:15.622Z,23.41
2022-08-26T06:25:36.080Z,23.26
2022-08-26T06:31:40.061Z,23.58
2022-08-26T06:37:42.842Z,23.83
2022-08-26T06:43:44.829Z,24.34
2022-08-26T06:49:46.960Z,24.93
2022-08-26T06:55:51.865Z,26.62
2022-08-26T07:01:54.723Z,28.81
2022-08-26T07:07:57.971Z,28.66
2022-08-26T07:14:00.934Z,27.97
2022-08-26T07:20:07.565Z,27.19
2022-08-26T07:26:16.159Z,27.34
2022-08-26T07:32:22.830Z,27.55
2022-08-26T07:38:24.950Z,27.54
2022-08-26T07:44:27.790Z,28.02
2022-08-26T07:50:48.796Z,28.45
2022-08-26T07:56:51.896Z,28.84
2022-08-26T08:02:54.243Z,28.93
2022-08-26T08:09:00.833Z,29.13
2022-08-26T08:15:02.856Z,29.49
2022-08-26T08:21:21.441Z,29.81
2022-08-26T08:27:25.736Z,30.32
2022-08-26T08:33:30.162Z,30.82
2022-08-26T08:39:33.091Z,31.61
2022-08-26T08:45:56.521Z,32.06
2022-08-26T08:52:35.284Z,32.15
2022-08-26T08:58:59.100Z,32.18
2022-08-26T09:05:34.052Z,32.24
2022-08-26T09:11:36.645Z,32.06
2022-08-26T09:18:27.642Z,32.99
2022-08-26T09:24:38.356Z,33.18
2022-08-26T09:30:47.926Z,34.22
2022-08-26T09:36:55.731Z,34.30
2022-08-26T09:43:22.604Z,34.86
2022-08-26T09:49:36.417Z,35.25
2022-08-26T09:55:42.958Z,35.36
2022-08-26T10:01:45.252Z,36.07
2022-08-26T10:07:51.175Z,36.16
2022-08-26T10:14:03.319Z,35.53
2022-08-26T10:20:31.279Z,36.11
2022-08-26T10:26:51.760Z,36.37
2022-08-26T10:33:18.475Z,37.02
2022-08-26T10:39:31.843Z,37.89
2022-08-26T10:45:50.742Z,38.80
2022-08-26T10:52:29.506Z,39.21
2022-08-26T10:59:15.235Z,41.23
2022-08-26T11:05:23.530Z,43.03
2022-08-26T11:11:42.045Z,44.01
2022-08-26T11:18:05.160Z,42.60
2022-08-26T11:24:07.153Z,44.16
2022-08-26T11:30:20.793Z,43.74
2022-08-26T11:36:41.097Z,41.51
2022-08-26T11:42:50.743Z,41.79
2022-08-26T11:49:02.767Z,43.92
2022-08-26T11:55:14.339Z,45.61
2022-08-26T12:01:32.490Z,44.74
2022-08-26T12:07:34.696Z,44.68
2022-08-26T12:13:39.056Z,42.79
2022-08-26T12:19:41.162Z,40.38
2022-08-26T12:25:43.192Z,37.62
2022-08-26T12:31:45.630Z,36.08
2022-08-26T12:37:54.065Z,35.43
2022-08-26T12:43:56.727Z,35.33
2022-08-26T12:50:05.944Z,35.32
2022-08-26T12:56:28.933Z,38.18
2022-08-26T13:02:39.989Z,39.86
2022-08-26T13:09:24.327Z,40.09
2022-08-26T13:15:26.401Z,39.23
2022-08-26T13:21:37.384Z,36.78
2022-08-26T13:27:40.390Z,36.19
2022-08-26T13:33:44.490Z,36.21
2022-08-26T13:39:46.795Z,37.87
2022-08-26T13:45:49.469Z,36.82
2022-08-26T13:51:51.479Z,36.22
2022-08-26T13:57:56.625Z,35.14
2022-08-26T14:03:59.095Z,34.76
2022-08-26T14:10:01.665Z,34.05
2022-08-26T14:16:09.142Z,33.34
2022-08-26T14:22:11.199Z,31.46
2022-08-26T14:28:13.226Z,30.87
2022-08-26T14:34:15.699Z,30.16
2022-08-26T14:40:20.333Z,29.77
2022-08-26T14:46:22.455Z,29.60
2022-08-26T14:52:24.924Z,29.82
2022-08-26T14:58:35.020Z,30.05
2022-08-26T15:04:38.444Z,30.06
2022-08-26T15:10:40.444Z,29.73
2022-08-26T15:16:42.583Z,29.56
2022-08-26T15:22:44.596Z,29.58
2022-08-26T15:28:47.366Z,29.53
2022-08-26T15:34:53.019Z,29.40
2022-08-26T15:40:55.346Z,29.24
2022-08-26T15:46:59.083Z,29.27
2022-08-26T15:53:01.478Z,29.26
2022-08-26T15:59:07.514Z,29.12
2022-08-26T16:05:10.411Z,29.33
2022-08-26T16:11:14.032Z,29.47
2022-08-26T16:17:16.072Z,29.48
2022-08-26T16:23:19.011Z,29.22
2022-08-26T16:29:21.055Z,29.38
2022-08-26T16:35:23.223Z,29.38
2022-08-26T16:41:29.279Z,28.97
2022-08-26T16:47:31.760Z,28.66
2022-08-26T16:53:33.837Z,28.26
2022-08-26T16:59:35.991Z,28.05
2022-08-26T17:05:38.340Z,28.04
2022-08-26T17:11:40.472Z,27.86
2022-08-26T17:17:42.604Z,27.64
2022-08-26T17:23:45.135Z,27.80
2022-08-26T17:29:47.116Z,27.50
2022-08-26T17:35:49.090Z,27.49
2022-08-26T17:41:51.535Z,27.51
2022-08-26T17:47:56.609Z,27.49
2022-08-26T17:53:58.664Z,27.38
2022-08-26T18:00:00.955Z,26.77
2022-08-26T18:06:07.977Z,26.34
2022-08-26T18:12:10.795Z,25.96
2022-08-26T18:18:14.858Z,25.46
2022-08-26T18:24:17.003Z,24.95
2022-08-26T18:30:21.608Z,24.34
2022-08-26T18:36:33.271Z,23.75
2022-08-26T18:42:35.493Z,23.42
2022-08-26T18:48:39.622Z,23.26
2022-08-26T18:54:41.599Z,22.79
2022-08-26T19:00:43.596Z,22.58
2022-08-26T19:06:50.964Z,22.38
2022-08-26T19:12:55.382Z,22.58
2022-08-26T19:19:01.916Z,22.16
2022-08-26T19:25:04.392Z,22.33
2022-08-26T19:31:10.475Z,22.50
2022-08-26T19:37:12.502Z,22.54
2022-08-26T19:43:14.488Z,22.12
2022-08-26T19:49:16.548Z,22.06
2022-08-26T19:55:21.003Z,21.99
2022-08-26T20:01:23.335Z,22.20
2022-08-26T20:07:25.494Z,22.15
2022-08-26T20:13:28.241Z,22.12
2022-08-26T20:19:48.981Z,22.08
2022-08-26T20:25:50.958Z,22.10
2022-08-26T20:31:54.627Z,22.14
2022-08-26T20:37:56.678Z,22.18
2022-08-26T20:43:59.404Z,22.23
2022-08-26T20:50:02.525Z,22.12
2022-08-26T20:56:08.282Z,22.26
2022-08-26T21:02:10.360Z,22.36
2022-08-26T21:08:13.218Z,22.39
2022-08-26T21:14:17.010Z,22.40
2022-08-26T21:20:19.804Z,22.41
2022-08-26T21:26:22.952Z,22.46
2022-08-26T21:32:25.002Z,22.49
2022-08-26T21:38:30.855Z,22.43
2022-08-26T21:44:32.867Z,22.51
2022-08-26T21:50:38.230Z,22.66
2022-08-26T21:56:46.157Z,22.42
2022-08-26T22:02:50.199Z,22.32
2022-08-26T22:08:53.848Z,22.27
2022-08-26T22:14:55.845Z,22.05
2022-08-26T22:21:03.200Z,21.95
2022-08-26T22:27:05.358Z,21.95
2022-08-26T22:33:07.447Z,21.82
2022-08-26T22:39:10.469Z,21.53
2022-08-26T22:45:13.070Z,21.54
2022-08-26T22:51:15.110Z,21.41
2022-08-26T22:57:17.109Z,21.37
2022-08-26T23:03:19.282Z,21.08
2022-08-26T23:09:21.386Z,21.03
2022-08-26T23:15:24.531Z,21.06
2022-08-26T23:21:26.534Z,20.67
2022-08-26T23:27:29.209Z,20.76
2022-08-26T23:33:51.281Z,20.84
2022-08-26T23:39:55.205Z,20.80
2022-08-26T23:45:57.310Z,20.72
2022-08-26T23:52:17.810Z,20.69
2022-08-26T23:58:21.947Z,20.51
